createdAt,value
2022-11-08T02:01:24.768Z,12.85
2022-11-08T02:03:53.138Z,12.95
2022-11-08T02:06:21.100Z,13.07
2022-11-08T02:08:49.495Z,13.13
2022-11-08T02:11:18.925Z,13.24
2022-11-08T02:13:46.980Z,13.32
2022-11-08T02:16:16.800Z,13.37
2022-11-08T02:18:48.918Z,13.46
2022-11-08T02:21:26.617Z,13.45
2022-11-08T02:23:59.418Z,13.48
2022-11-08T02:26:32.780Z,13.48
2022-11-08T02:29:26.173Z,13.51
2022-11-08T02:31:55.159Z,13.45
2022-11-08T02:34:29.349Z,13.47
2022-11-08T02:36:58.084Z,13.49
2022-11-08T02:39:28.728Z,13.49
2022-11-08T02:41:56.478Z,13.45
2022-11-08T02:44:24.491Z,13.56
2022-11-08T02:46:52.404Z,13.55
2022-11-08T02:49:20.291Z,13.53
2022-11-08T02:51:48.301Z,13.47
2022-11-08T02:54:16.060Z,13.45
2022-11-08T02:56:45.317Z,13.31
2022-11-08T02:59:13.244Z,13.25
2022-11-08T03:01:41.268Z,13.24
2022-11-08T03:04:09.346Z,13.15
2022-11-08T03:06:37.542Z,13.11
2022-11-08T03:09:05.932Z,13.02
2022-11-08T03:11:33.693Z,12.96
2022-11-08T03:14:03.048Z,12.97
2022-11-08T03:16:31.167Z,12.93
2022-11-08T03:18:58.935Z,12.86
2022-11-08T03:21:27.685Z,12.87
2022-11-08T03:23:55.725Z,12.89
2022-11-08T03:26:23.628Z,12.89
2022-11-08T03:28:51.388Z,12.81
2022-11-08T03:31:20.614Z,12.82
2022-11-08T03:33:48.422Z,12.80
2022-11-08T03:36:16.268Z,12.81
2022-11-08T03:38:44.075Z,12.78
2022-11-08T03:41:11.851Z,12.79
2022-11-08T03:43:39.656Z,12.75
2022-11-08T03:46:07.434Z,12.80
2022-11-08T03:48:36.816Z,12.79
2022-11-08T03:51:04.949Z,12.75
2022-11-08T03:53:32.774Z,12.75
2022-11-08T03:56:01.009Z,12.72
2022-11-08T03:58:29.021Z,12.71
2022-11-08T04:00:58.200Z,12.67
2022-11-08T04:03:26.112Z,12.66
2022-11-08T04:05:56.086Z,12.64
2022-11-08T04:08:23.836Z,12.60
2022-11-08T04:10:54.764Z,12.54
2022-11-08T04:13:41.877Z,12.52
2022-11-08T04:16:12.762Z,12.50
2022-11-08T04:19:03.355Z,12.43
2022-11-08T04:21:32.520Z,12.44
2022-11-08T04:24:00.326Z,12.39
2022-11-08T04:26:28.095Z,12.30
2022-11-08T04:28:55.959Z,12.24
2022-11-08T04:31:23.918Z,12.17
2022-11-08T04:33:52.059Z,12.17
2022-11-08T04:36:20.123Z,12.18
2022-11-08T04:38:50.556Z,12.13
2022-11-08T04:41:21.922Z,12.15
2022-11-08T04:43:51.542Z,12.12
2022-11-08T04:46:21.670Z,12.09
2022-11-08T04:48:52.120Z,12.02
2022-11-08T04:51:23.466Z,12.07
2022-11-08T04:53:54.407Z,12.04
2022-11-08T04:56:22.490Z,12.01
2022-11-08T04:58:53.037Z,12.03
2022-11-08T05:01:23.333Z,11.94
2022-11-08T05:03:53.341Z,11.92
2022-11-08T05:06:23.708Z,11.95
2022-11-08T05:08:55.310Z,12.00
2022-11-08T05:11:25.519Z,11.97
2022-11-08T05:13:53.706Z,11.98
2022-11-08T05:16:24.748Z,11.96
2022-11-08T05:18:53.526Z,11.87
2022-11-08T05:21:41.229Z,11.90
2022-11-08T05:24:13.789Z,11.95
2022-11-08T05:26:45.650Z,11.97
2022-11-08T05:29:15.760Z,11.93
2022-11-08T05:31:44.052Z,11.98
2022-11-08T05:34:11.845Z,12.00
2022-11-08T05:36:39.605Z,11.97
2022-11-08T05:39:07.404Z,11.99
2022-11-08T05:41:36.558Z,11.96
2022-11-08T05:44:04.524Z,11.93
2022-11-08T05:46:33.781Z,11.94
2022-11-08T05:49:01.768Z,11.92
2022-11-08T05:51:29.537Z,11.90
2022-11-08T05:53:57.458Z,11.97
2022-11-08T05:56:25.356Z,11.97
2022-11-08T05:58:54.468Z,12.00
2022-11-08T06:01:22.264Z,12.00
2022-11-08T06:03:50.755Z,12.08
2022-11-08T06:06:21.693Z,12.08
2022-11-08T06:08:51.799Z,12.10
2022-11-08T06:11:24.789Z,12.11
2022-11-08T06:13:55.717Z,12.09
2022-11-08T06:16:25.186Z,12.14
2022-11-08T06:18:53.357Z,12.17
2022-11-08T06:21:22.288Z,12.15
2022-11-08T06:23:53.667Z,12.13
2022-11-08T06:26:22.433Z,12.12
2022-11-08T06:28:50.638Z,12.17
2022-11-08T06:31:19.855Z,12.20
2022-11-08T06:33:47.854Z,12.15
2022-11-08T06:36:15.935Z,12.19
2022-11-08T06:38:43.749Z,12.22
2022-11-08T06:41:19.184Z,12.20
2022-11-08T06:43:47.050Z,12.20
2022-11-08T06:46:15.457Z,12.19
2022-11-08T06:48:44.901Z,12.22
2022-11-08T06:51:13.166Z,12.26
2022-11-08T06:53:40.966Z,12.29
2022-11-08T06:56:09.850Z,12.35
2022-11-08T06:58:38.222Z,12.34
2022-11-08T07:01:09.118Z,12.40
2022-11-08T07:03:36.985Z,12.44
2022-11-08T07:06:07.784Z,12.47
2022-11-08T07:08:36.199Z,12.48
2022-11-08T07:11:04.749Z,12.52
2022-11-08T07:13:32.712Z,12.58
2022-11-08T07:16:01.182Z,12.66
2022-11-08T07:18:29.151Z,12.75
2022-11-08T07:21:01.313Z,12.78
2022-11-08T07:23:30.700Z,12.89
2022-11-08T07:26:02.434Z,12.87
2022-11-08T07:28:31.125Z,12.89
2022-11-08T07:31:04.769Z,12.97
2022-11-08T07:33:33.256Z,13.06
2022-11-08T07:36:01.497Z,13.06
2022-11-08T07:38:30.954Z,13.13
2022-11-08T07:41:01.289Z,13.10
2022-11-08T07:43:30.056Z,13.18
2022-11-08T07:46:05.372Z,13.27
2022-11-08T07:48:33.236Z,13.33
2022-11-08T07:51:01.069Z,13.35
2022-11-08T07:53:30.720Z,13.43
2022-11-08T07:55:58.575Z,13.48
2022-11-08T07:58:26.606Z,13.53
2022-11-08T08:01:01.838Z,13.56
2022-11-08T08:03:30.769Z,13.66
2022-11-08T08:06:01.347Z,13.78
2022-11-08T08:08:30.861Z,13.80
2022-11-08T08:11:00.318Z,13.85
2022-11-08T08:13:28.592Z,13.91
2022-11-08T08:15:59.635Z,13.92
2022-11-08T08:18:27.899Z,13.97
2022-11-08T08:20:55.764Z,14.01
2022-11-08T08:23:23.992Z,14.04
2022-11-08T08:25:53.320Z,14.07
2022-11-08T08:28:21.270Z,14.09
2022-11-08T08:30:49.076Z,14.18
2022-11-08T08:33:33.731Z,14.18
2022-11-08T08:36:01.971Z,14.33
2022-11-08T08:38:30.645Z,14.33
2022-11-08T08:41:01.099Z,14.38
2022-11-08T08:43:32.532Z,14.53
2022-11-08T08:46:01.884Z,14.57
2022-11-08T08:48:30.153Z,14.58
2022-11-08T08:50:58.664Z,14.76
2022-11-08T08:53:27.029Z,14.86
2022-11-08T08:55:55.033Z,14.95
2022-11-08T08:58:24.342Z,14.96
2022-11-08T09:03:40.042Z,15.13
2022-11-08T09:06:08.302Z,15.20
2022-11-08T09:08:36.431Z,15.21
2022-11-08T09:11:04.561Z,15.33
2022-11-08T09:13:33.913Z,15.36
2022-11-08T09:16:03.441Z,15.35
2022-11-08T09:18:32.166Z,15.48
2022-11-08T09:21:01.424Z,15.49
2022-11-08T09:23:29.167Z,15.50
2022-11-08T09:25:58.115Z,15.47
2022-11-08T09:28:30.993Z,15.55
2022-11-08T09:31:03.629Z,15.62
2022-11-08T09:33:31.553Z,15.72
2022-11-08T09:36:00.807Z,15.81
2022-11-08T09:38:29.064Z,15.93
2022-11-08T09:41:26.832Z,15.96
2022-11-08T09:44:18.628Z,16.03
2022-11-08T09:46:52.936Z,16.26
2022-11-08T09:49:29.737Z,16.32
2022-11-08T09:52:00.269Z,16.45
2022-11-08T09:54:38.823Z,16.55
2022-11-08T09:57:16.675Z,16.78
2022-11-08T09:59:50.918Z,17.03
2022-11-08T10:02:23.634Z,17.05
2022-11-08T10:04:58.309Z,17.16
2022-11-08T10:07:39.040Z,17.33
2022-11-08T10:10:48.462Z,17.64
2022-11-08T10:13:32.963Z,18.01
2022-11-08T10:16:12.100Z,18.38
2022-11-08T10:19:24.412Z,18.58
2022-11-08T10:22:02.212Z,18.56
2022-11-08T10:24:35.491Z,18.64
2022-11-08T10:27:13.457Z,18.51
2022-11-08T10:29:45.644Z,18.47
2022-11-08T10:32:21.365Z,18.30
2022-11-08T10:35:02.401Z,18.22
2022-11-08T10:37:33.453Z,18.28
2022-11-08T10:40:13.911Z,18.22
2022-11-08T10:42:50.374Z,18.46
2022-11-08T10:45:18.363Z,18.40
2022-11-08T10:47:47.148Z,18.42
2022-11-08T10:50:25.965Z,18.43
2022-11-08T10:52:59.764Z,18.44
2022-11-08T10:55:33.393Z,18.49
2022-11-08T10:58:01.354Z,18.47
2022-11-08T11:00:33.136Z,18.50
2022-11-08T11:03:23.230Z,18.73
2022-11-08T11:05:59.910Z,18.74
2022-11-08T11:08:28.119Z,18.82
2022-11-08T11:11:23.591Z,18.81
2022-11-08T11:14:16.259Z,18.85
2022-11-08T11:16:57.426Z,18.70
2022-11-08T11:19:28.088Z,18.76
2022-11-08T11:22:03.638Z,18.85
2022-11-08T11:24:34.317Z,18.78
2022-11-08T11:27:16.276Z,18.61
2022-11-08T11:29:44.239Z,18.73
2022-11-08T11:32:24.667Z,18.81
2022-11-08T11:34:58.282Z,18.73
2022-11-08T11:37:39.209Z,18.70
2022-11-08T11:40:18.832Z,18.66
2022-11-08T11:43:01.810Z,18.68
2022-11-08T11:45:40.092Z,18.85
2022-11-08T11:48:17.276Z,18.84
2022-11-08T11:50:48.255Z,18.83
2022-11-08T11:53:22.882Z,18.99
2022-11-08T11:56:34.742Z,19.22
2022-11-08T11:59:45.350Z,19.20
2022-11-08T12:03:01.996Z,19.29
2022-11-08T12:05:49.225Z,19.48
2022-11-08T12:08:39.655Z,19.58
2022-11-08T12:11:44.289Z,19.38
2022-11-08T12:14:33.851Z,19.27
2022-11-08T12:17:21.067Z,19.56
2022-11-08T12:20:26.611Z,19.37
2022-11-08T12:23:29.122Z,19.57
2022-11-08T12:26:11.822Z,19.70
2022-11-08T12:29:06.678Z,20.09
2022-11-08T12:31:46.723Z,20.00
2022-11-08T12:34:22.938Z,19.93
2022-11-08T12:37:08.019Z,19.91
2022-11-08T12:39:47.012Z,19.69
2022-11-08T12:42:56.139Z,19.86
2022-11-08T12:45:56.224Z,19.73
2022-11-08T12:48:53.309Z,19.57
2022-11-08T12:51:36.667Z,19.24
2022-11-08T12:54:22.663Z,19.13
2022-11-08T12:56:53.876Z,19.28
2022-11-08T12:59:28.377Z,19.39
2022-11-08T13:02:00.709Z,19.31
2022-11-08T13:05:00.570Z,19.18
2022-11-08T13:07:41.528Z,19.20
2022-11-08T13:10:36.454Z,19.17
2022-11-08T13:13:22.906Z,18.93
2022-11-08T13:16:15.612Z,18.84
2022-11-08T13:18:49.959Z,18.74
2022-11-08T13:21:40.391Z,18.79
2022-11-08T13:24:50.303Z,18.75
2022-11-08T13:27:34.459Z,18.60
2022-11-08T13:30:38.553Z,18.52
2022-11-08T13:33:23.800Z,18.49
2022-11-08T13:36:13.847Z,18.57
2022-11-08T13:38:58.003Z,18.53
2022-11-08T13:41:26.680Z,18.44
2022-11-08T13:43:56.260Z,18.33
2022-11-08T13:46:48.367Z,18.25
2022-11-08T13:49:20.955Z,18.24
2022-11-08T13:51:49.243Z,18.16
2022-11-08T13:54:51.109Z,18.01
2022-11-08T13:57:54.909Z,18.08
2022-11-08T14:00:45.196Z,18.14
2022-11-08T14:03:54.251Z,18.07
2022-11-08T14:06:37.072Z,18.14
2022-11-08T14:09:22.889Z,17.98
2022-11-08T14:12:00.909Z,17.91
2022-11-08T14:14:40.346Z,18.06
2022-11-08T14:17:31.853Z,18.06
2022-11-08T14:20:32.421Z,18.08
2022-11-08T14:23:14.885Z,18.11
2022-11-08T14:25:47.116Z,18.02
2022-11-08T14:28:24.034Z,18.05
2022-11-08T14:30:52.552Z,18.01
2022-11-08T14:33:23.089Z,17.92
2022-11-08T14:35:58.627Z,17.88
2022-11-08T14:38:30.331Z,17.77
2022-11-08T14:41:01.612Z,17.76
2022-11-08T14:43:31.086Z,17.74
2022-11-08T14:46:10.234Z,17.76
2022-11-08T14:48:47.970Z,17.68
2022-11-08T14:51:15.840Z,17.65
2022-11-08T14:53:50.685Z,17.64
2022-11-08T14:56:22.592Z,17.56
2022-11-08T14:58:53.201Z,17.55
2022-11-08T15:01:25.521Z,17.52
2022-11-08T15:03:57.273Z,17.51
2022-11-08T15:06:31.587Z,17.44
2022-11-08T15:09:03.037Z,17.50
2022-11-08T15:11:34.355Z,17.43
2022-11-08T15:14:05.168Z,17.39
2022-11-08T15:16:46.733Z,17.31
2022-11-08T15:19:32.214Z,17.39
2022-11-08T15:22:02.964Z,17.34
2022-11-08T15:24:38.569Z,17.31
2022-11-08T15:27:16.699Z,17.18
2022-11-08T15:29:53.640Z,17.12
2022-11-08T15:32:22.870Z,17.02
2022-11-08T15:34:55.884Z,17.20
2022-11-08T15:37:34.256Z,17.11
2022-11-08T15:40:15.989Z,17.03
2022-11-08T15:42:46.339Z,17.02
2022-11-08T15:45:25.821Z,16.87
2022-11-08T15:48:01.628Z,16.84
2022-11-08T15:50:32.328Z,16.87
2022-11-08T15:53:03.347Z,16.85
2022-11-08T15:55:38.486Z,16.78
2022-11-08T15:58:15.872Z,16.70
2022-11-08T16:00:47.103Z,16.76
2022-11-08T16:03:15.490Z,16.70
2022-11-08T16:05:43.637Z,16.69
2022-11-08T16:08:15.616Z,16.70
2022-11-08T16:10:51.091Z,16.68
2022-11-08T16:13:24.710Z,16.69
2022-11-08T16:15:52.620Z,16.67
2022-11-08T16:18:21.216Z,16.57
2022-11-08T16:20:49.825Z,16.52
2022-11-08T16:23:17.750Z,16.59
2022-11-08T16:25:50.297Z,16.65
2022-11-08T16:28:24.506Z,16.57
2022-11-08T16:30:53.606Z,16.57
2022-11-08T16:33:23.655Z,16.57
2022-11-08T16:35:55.035Z,16.63
2022-11-08T16:38:27.526Z,16.65
2022-11-08T16:40:56.858Z,16.64
2022-11-08T16:43:24.725Z,16.62
2022-11-08T16:46:07.892Z,16.60
2022-11-08T16:48:39.888Z,16.54
2022-11-08T16:51:17.240Z,16.52
2022-11-08T16:53:45.827Z,16.53
2022-11-08T16:56:15.768Z,16.49
2022-11-08T16:58:44.054Z,16.47
2022-11-08T17:01:17.852Z,16.50
2022-11-08T17:03:45.758Z,16.59
2022-11-08T17:06:17.961Z,16.56
2022-11-08T17:08:46.440Z,16.48
2022-11-08T17:11:19.827Z,16.56
2022-11-08T17:13:48.980Z,16.60
2022-11-08T17:16:18.574Z,16.55
2022-11-08T17:18:52.186Z,16.60
2022-11-08T17:21:43.836Z,16.62
2022-11-08T17:24:10.121Z,16.69
2022-11-08T17:26:39.227Z,16.79
2022-11-08T17:29:08.044Z,16.72
2022-11-08T17:31:35.950Z,16.75
2022-11-08T17:34:03.743Z,16.69
2022-11-08T17:36:31.663Z,16.60
2022-11-08T17:38:59.536Z,16.59
2022-11-08T17:41:27.392Z,16.50
2022-11-08T17:43:56.495Z,16.47
2022-11-08T17:46:24.396Z,16.39
2022-11-08T17:48:52.278Z,16.35
2022-11-08T17:51:20.343Z,16.34
2022-11-08T17:53:48.835Z,16.32
2022-11-08T17:56:16.768Z,16.33
2022-11-08T17:58:44.774Z,16.30
2022-11-08T18:01:15.801Z,16.34
2022-11-08T18:03:43.839Z,16.25
2022-11-08T18:06:14.477Z,16.25
2022-11-08T18:08:42.983Z,16.20
2022-11-08T18:11:10.952Z,16.23
2022-11-08T18:13:38.699Z,16.17
2022-11-08T18:16:09.280Z,16.12
2022-11-08T18:18:39.042Z,16.07
2022-11-08T18:21:08.103Z,16.03
2022-11-08T18:23:36.287Z,16.05
2022-11-08T18:26:05.037Z,16.03
2022-11-08T18:28:32.831Z,16.08
2022-11-08T18:31:05.998Z,15.98
2022-11-08T18:33:35.254Z,16.03
2022-11-08T18:36:06.697Z,16.00
2022-11-08T18:38:41.973Z,15.98
2022-11-08T18:41:10.993Z,15.99
2022-11-08T18:43:39.319Z,16.02
2022-11-08T18:46:11.628Z,16.04
2022-11-08T18:48:39.406Z,15.95
2022-11-08T18:51:12.297Z,16.00
2022-11-08T18:53:41.132Z,16.03
2022-11-08T18:56:11.112Z,16.07
2022-11-08T18:58:39.639Z,16.09
2022-11-08T19:01:08.147Z,16.09
2022-11-08T19:03:36.029Z,16.02
2022-11-08T19:06:04.491Z,16.09
2022-11-08T19:08:34.238Z,16.11
2022-11-08T19:11:06.195Z,16.15
2022-11-08T19:13:35.980Z,16.10
2022-11-08T19:16:07.171Z,16.12
2022-11-08T19:18:35.775Z,16.14
2022-11-08T19:21:07.839Z,16.17
2022-11-08T19:23:38.363Z,16.17
2022-11-08T19:26:10.449Z,16.14
2022-11-08T19:28:40.767Z,16.10
2022-11-08T19:31:09.208Z,16.11
2022-11-08T19:33:37.201Z,16.11
2022-11-08T19:36:08.885Z,16.06
2022-11-08T19:38:39.959Z,16.05
2022-11-08T19:41:10.487Z,16.10
2022-11-08T19:43:40.969Z,16.08
2022-11-08T19:46:13.035Z,16.06
2022-11-08T19:48:43.894Z,16.07
2022-11-08T19:51:16.126Z,16.06
2022-11-08T19:53:45.631Z,16.03
2022-11-08T19:56:16.942Z,15.99
2022-11-08T19:58:45.160Z,15.97
2022-11-08T20:01:17.959Z,15.92
2022-11-08T20:03:47.314Z,15.92
2022-11-08T20:06:18.317Z,15.97
2022-11-08T20:08:50.150Z,15.98
2022-11-08T20:11:20.942Z,15.96
2022-11-08T20:13:49.266Z,15.92
2022-11-08T20:16:20.396Z,15.90
2022-11-08T20:18:48.452Z,15.86
2022-11-08T20:21:17.929Z,15.87
2022-11-08T20:23:47.459Z,15.87
2022-11-08T20:26:20.004Z,15.83
2022-11-08T20:28:56.262Z,15.86
2022-11-08T20:31:25.821Z,15.84
2022-11-08T20:33:54.230Z,15.81
2022-11-08T20:36:24.369Z,15.80
2022-11-08T20:38:56.379Z,15.82
2022-11-08T20:41:25.585Z,15.83
2022-11-08T20:43:53.436Z,15.81
2022-11-08T20:46:21.357Z,15.74
2022-11-08T20:48:51.130Z,15.69
2022-11-08T20:51:21.258Z,15.64
2022-11-08T20:53:49.399Z,15.62
2022-11-08T20:56:20.168Z,15.65
2022-11-08T20:58:51.382Z,15.62
2022-11-08T21:01:22.689Z,15.59
2022-11-08T21:03:52.319Z,15.62
2022-11-08T21:06:23.626Z,15.61
2022-11-08T21:09:07.035Z,15.53
2022-11-08T21:11:40.481Z,15.58
2022-11-08T21:14:09.653Z,15.53
2022-11-08T21:16:59.806Z,15.51
2022-11-08T21:19:26.621Z,15.49
2022-11-08T21:22:14.329Z,15.48
2022-11-08T21:24:43.711Z,15.44
2022-11-08T21:27:12.258Z,15.41
2022-11-08T21:29:41.579Z,15.35
2022-11-08T21:32:09.458Z,15.37
2022-11-08T21:34:37.313Z,15.37
2022-11-08T21:37:05.081Z,15.34
2022-11-08T21:39:32.822Z,15.32
2022-11-08T21:42:00.572Z,15.38
2022-11-08T21:44:28.343Z,15.50
2022-11-08T21:46:57.586Z,15.45
2022-11-08T21:49:25.490Z,15.44
2022-11-08T21:51:53.262Z,15.46
2022-11-08T21:54:21.410Z,15.40
2022-11-08T21:56:49.508Z,15.46
2022-11-08T21:59:17.282Z,15.50
2022-11-08T22:01:45.030Z,15.51
2022-11-08T22:04:14.182Z,15.57
2022-11-08T22:06:46.517Z,15.65
2022-11-08T22:09:15.660Z,15.67
2022-11-08T22:11:43.690Z,15.79
2022-11-08T22:14:12.199Z,15.93
2022-11-08T22:16:39.984Z,16.07
2022-11-08T22:19:08.451Z,16.12
2022-11-08T22:21:38.821Z,16.24
2022-11-08T22:24:08.912Z,16.33
2022-11-08T22:26:38.041Z,16.34
2022-11-08T22:29:06.761Z,16.36
2022-11-08T22:31:35.135Z,16.36
2022-11-08T22:34:03.847Z,16.40
2022-11-08T22:36:32.055Z,16.47
2022-11-08T22:39:01.552Z,16.43
2022-11-08T22:41:30.064Z,16.51
2022-11-08T22:43:58.517Z,16.52
2022-11-08T22:46:26.442Z,16.50
2022-11-08T22:48:54.925Z,16.53
2022-11-08T22:51:22.858Z,16.53
2022-11-08T22:53:50.596Z,16.50
2022-11-08T22:56:19.824Z,16.57
2022-11-08T22:58:47.890Z,16.66
2022-11-08T23:01:16.892Z,16.76
2022-11-08T23:03:45.909Z,16.79
2022-11-08T23:06:15.704Z,16.84
2022-11-08T23:08:45.870Z,16.79
2022-11-08T23:11:32.953Z,16.83
2022-11-08T23:14:21.675Z,16.82
2022-11-08T23:16:49.560Z,16.85
2022-11-08T23:19:40.096Z,16.79
2022-11-08T23:22:31.021Z,16.84
2022-11-08T23:24:59.037Z,16.84
2022-11-08T23:27:46.110Z,16.82
2022-11-08T23:30:36.385Z,16.81
2022-11-08T23:33:06.721Z,16.84
2022-11-08T23:35:34.846Z,16.79
2022-11-08T23:38:02.837Z,16.86
2022-11-08T23:40:49.124Z,16.89
2022-11-08T23:43:37.804Z,16.89
2022-11-08T23:46:10.653Z,16.84
2022-11-08T23:48:40.589Z,16.92
2022-11-08T23:51:08.583Z,16.88
2022-11-08T23:53:37.554Z,16.90
2022-11-08T23:56:06.686Z,16.93
2022-11-08T23:58:34.534Z,16.93
